createdAt,value
2018-03-23T00:02:03.436Z,7.67
2018-03-23T00:04:32.551Z,7.64
2018-03-23T00:07:00.877Z,7.57
2018-03-23T00:09:29.317Z,7.69
2018-03-23T00:11:57.862Z,7.58
2018-03-23T00:14:26.317Z,7.54
2018-03-23T00:16:54.646Z,7.39
2018-03-23T00:19:23.004Z,7.48
2018-03-23T00:21:51.314Z,7.33
2018-03-23T00:24:19.617Z,7.22
2018-03-23T00:26:47.955Z,7.38
2018-03-23T00:29:17.086Z,7.35
2018-03-23T00:31:45.462Z,7.39
2018-03-23T00:34:14.293Z,7.48
2018-03-23T00:36:42.660Z,7.49
2018-03-23T00:39:11.004Z,7.48
2018-03-23T00:41:39.349Z,7.58
2018-03-23T00:44:07.677Z,7.55
2018-03-23T00:46:36.009Z,7.57
2018-03-23T00:49:05.102Z,7.46
2018-03-23T00:51:34.205Z,7.19
2018-03-23T00:54:03.293Z,7.10
2018-03-23T00:56:32.692Z,7.13
2018-03-23T00:59:01.026Z,7.03
2018-03-23T01:01:29.370Z,7.30
2018-03-23T01:03:58.035Z,7.21
2018-03-23T01:06:27.524Z,7.24
2018-03-23T01:08:55.837Z,7.43
2018-03-23T01:11:25.096Z,7.52
2018-03-23T01:13:53.876Z,7.59
2018-03-23T01:16:22.295Z,7.71
2018-03-23T01:18:51.885Z,7.73
2018-03-23T01:21:20.276Z,7.64
2018-03-23T01:23:48.613Z,7.64
2018-03-23T01:26:16.953Z,7.78
2018-03-23T01:28:45.281Z,7.70
2018-03-23T01:31:13.624Z,7.61
2018-03-23T01:33:42.030Z,7.61
2018-03-23T01:36:10.380Z,7.68
2018-03-23T01:38:38.705Z,7.74
2018-03-23T01:41:07.253Z,7.72
2018-03-23T01:43:35.561Z,7.73
2018-03-23T01:46:03.888Z,7.75
2018-03-23T01:48:32.258Z,7.76
2018-03-23T01:51:01.355Z,7.72
2018-03-23T01:53:43.413Z,7.77
2018-03-23T01:56:11.772Z,7.79
2018-03-23T01:58:40.856Z,7.83
2018-03-23T02:01:09.433Z,7.79
2018-03-23T02:03:37.775Z,7.66
2018-03-23T02:06:06.877Z,7.60
2018-03-23T02:08:35.468Z,7.45
2018-03-23T02:11:04.568Z,7.21
2018-03-23T02:13:32.983Z,7.13
2018-03-23T02:16:01.302Z,7.16
2018-03-23T02:18:30.392Z,7.21
2018-03-23T02:20:58.722Z,7.16
2018-03-23T02:23:27.469Z,7.18
2018-03-23T02:25:55.775Z,7.11
2018-03-23T02:28:24.114Z,6.78
2018-03-23T02:30:52.472Z,6.55
2018-03-23T02:33:20.819Z,6.53
2018-03-23T02:35:49.150Z,6.63
2018-03-23T02:38:17.503Z,6.48
2018-03-23T02:40:45.815Z,6.33
2018-03-23T02:43:14.164Z,6.34
2018-03-23T02:45:42.705Z,6.53
2018-03-23T02:48:11.013Z,6.37
2018-03-23T02:50:39.347Z,6.47
2018-03-23T02:53:08.492Z,6.66
2018-03-23T02:55:36.832Z,6.82
2018-03-23T02:58:05.893Z,6.75
2018-03-23T03:00:34.256Z,6.85
2018-03-23T03:03:02.572Z,6.88
2018-03-23T03:05:30.944Z,6.81
2018-03-23T03:08:00.236Z,6.68
2018-03-23T03:10:29.033Z,6.77
2018-03-23T03:12:57.572Z,6.66
2018-03-23T03:15:25.945Z,6.73
2018-03-23T03:17:54.266Z,6.60
2018-03-23T03:20:22.597Z,6.88
2018-03-23T03:22:50.988Z,6.67
2018-03-23T03:25:19.326Z,6.77
2018-03-23T03:27:47.659Z,6.73
2018-03-23T03:30:16.537Z,6.94
2018-03-23T03:32:45.640Z,7.11
2018-03-23T03:35:13.960Z,7.11
2018-03-23T03:37:43.085Z,7.11
2018-03-23T03:40:11.402Z,6.89
2018-03-23T03:42:39.708Z,6.97
2018-03-23T03:45:08.055Z,6.94
2018-03-23T03:47:36.368Z,7.00
2018-03-23T03:50:05.519Z,7.07
2018-03-23T03:52:34.245Z,6.95
2018-03-23T03:55:02.578Z,6.72
2018-03-23T03:57:30.902Z,6.82
2018-03-23T03:59:59.270Z,6.88
2018-03-23T04:02:27.591Z,7.05
2018-03-23T04:04:55.908Z,7.06
2018-03-23T04:07:24.244Z,6.87
2018-03-23T04:09:52.551Z,7.01
2018-03-23T04:12:20.922Z,7.17
2018-03-23T04:14:49.763Z,7.19
2018-03-23T04:17:18.068Z,7.04
2018-03-23T04:19:46.385Z,6.96
2018-03-23T04:22:14.748Z,6.59
2018-03-23T04:24:43.066Z,6.60
2018-03-23T04:27:11.381Z,6.77
2018-03-23T04:29:39.752Z,6.59
2018-03-23T04:32:08.092Z,6.47
2018-03-23T04:34:36.433Z,6.44
2018-03-23T04:37:04.908Z,6.49
2018-03-23T04:39:33.263Z,6.51
2018-03-23T04:42:02.382Z,6.55
2018-03-23T04:44:30.735Z,6.42
2018-03-23T04:46:59.836Z,6.33
2018-03-23T04:49:28.143Z,6.35
2018-03-23T04:51:56.501Z,6.36
2018-03-23T04:54:25.581Z,6.40
2018-03-23T04:56:53.882Z,6.46
2018-03-23T04:59:22.636Z,6.45
2018-03-23T05:01:50.995Z,6.36
2018-03-23T05:04:19.360Z,6.51
2018-03-23T05:06:47.737Z,6.37
2018-03-23T05:09:16.814Z,6.28
2018-03-23T05:11:45.558Z,6.35
2018-03-23T05:14:13.881Z,6.39
2018-03-23T05:16:42.212Z,6.44
2018-03-23T05:19:10.537Z,6.41
2018-03-23T05:21:38.955Z,6.36
2018-03-23T05:24:07.280Z,6.27
2018-03-23T05:26:35.628Z,6.21
2018-03-23T05:29:03.988Z,6.18
2018-03-23T05:31:32.594Z,5.93
2018-03-23T05:34:00.927Z,5.89
2018-03-23T05:36:29.296Z,6.01
2018-03-23T05:38:57.617Z,6.18
2018-03-23T05:41:25.942Z,5.82
2018-03-23T05:43:54.349Z,5.84
2018-03-23T05:46:22.708Z,6.12
2018-03-23T05:48:51.032Z,6.27
2018-03-23T05:51:19.384Z,6.18
2018-03-23T05:53:47.696Z,6.40
2018-03-23T05:56:16.037Z,6.34
2018-03-23T05:58:44.659Z,6.44
2018-03-23T06:01:13.020Z,6.39
2018-03-23T06:03:41.326Z,6.36
2018-03-23T06:06:10.040Z,6.14
2018-03-23T06:08:38.373Z,6.42
2018-03-23T06:11:06.686Z,6.59
2018-03-23T06:13:36.025Z,6.68
2018-03-23T06:16:04.365Z,6.69
2018-03-23T06:18:33.456Z,6.88
2018-03-23T06:21:02.561Z,6.88
2018-03-23T06:23:30.898Z,6.97
2018-03-23T06:25:59.308Z,6.98
2018-03-23T06:28:27.836Z,6.88
2018-03-23T06:30:56.188Z,6.93
2018-03-23T06:33:24.536Z,6.89
2018-03-23T06:35:52.923Z,6.97
2018-03-23T06:38:22.071Z,7.08
2018-03-23T06:40:50.424Z,6.74
2018-03-23T06:43:18.800Z,6.72
2018-03-23T06:45:47.135Z,7.03
2018-03-23T06:48:15.470Z,7.20
2018-03-23T06:50:44.104Z,7.43
2018-03-23T06:53:12.441Z,7.54
2018-03-23T06:55:40.825Z,7.69
2018-03-23T06:58:09.198Z,7.75
2018-03-23T07:00:37.531Z,7.75
2018-03-23T07:03:05.862Z,7.89
2018-03-23T07:05:34.287Z,7.96
2018-03-23T07:08:03.387Z,8.06
2018-03-23T07:10:31.715Z,8.17
2018-03-23T07:13:00.311Z,8.35
2018-03-23T07:15:29.038Z,8.51
2018-03-23T07:17:58.105Z,8.83
2018-03-23T07:20:26.426Z,8.77
2018-03-23T07:22:55.503Z,8.49
2018-03-23T07:25:23.807Z,8.66
2018-03-23T07:27:52.162Z,8.89
2018-03-23T07:30:20.460Z,8.96
2018-03-23T07:32:48.828Z,8.96
2018-03-23T07:35:18.209Z,9.13
2018-03-23T07:37:46.561Z,9.24
2018-03-23T07:40:14.879Z,9.10
2018-03-23T07:42:43.240Z,8.94
2018-03-23T07:45:11.591Z,8.83
2018-03-23T07:47:39.956Z,9.17
2018-03-23T07:50:08.320Z,9.45
2018-03-23T07:52:37.440Z,9.85
2018-03-23T07:55:05.763Z,10.27
2018-03-23T07:57:34.270Z,10.82
2018-03-23T08:00:03.353Z,11.24
2018-03-23T08:02:31.697Z,11.02
2018-03-23T08:05:00.059Z,10.88
2018-03-23T08:07:28.393Z,10.70
2018-03-23T08:09:57.494Z,10.34
2018-03-23T08:12:26.583Z,10.40
2018-03-23T08:14:55.760Z,10.50
2018-03-23T08:17:24.117Z,10.54
2018-03-23T08:19:52.868Z,10.55
2018-03-23T08:22:21.939Z,10.28
2018-03-23T08:24:50.325Z,10.21
2018-03-23T08:27:18.709Z,10.01
2018-03-23T08:29:47.815Z,10.25
2018-03-23T08:32:16.896Z,10.45
2018-03-23T08:34:45.995Z,10.29
2018-03-23T08:37:15.083Z,10.29
2018-03-23T08:39:44.154Z,10.09
2018-03-23T08:42:12.546Z,10.20
2018-03-23T08:44:40.896Z,10.11
2018-03-23T08:47:09.209Z,10.05
2018-03-23T08:49:37.566Z,9.82
2018-03-23T08:52:05.887Z,10.11
2018-03-23T08:54:34.984Z,10.15
2018-03-23T08:57:04.129Z,10.02
2018-03-23T08:59:32.465Z,10.10
2018-03-23T09:02:02.317Z,10.01
2018-03-23T09:04:30.976Z,10.22
2018-03-23T09:06:59.342Z,10.37
2018-03-23T09:09:28.425Z,10.39
2018-03-23T09:11:57.539Z,10.37
2018-03-23T09:14:25.836Z,10.56
2018-03-23T09:16:54.184Z,9.75
2018-03-23T09:19:23.695Z,9.80
2018-03-23T09:21:52.062Z,10.19
2018-03-23T09:24:20.503Z,9.84
2018-03-23T09:26:49.146Z,9.55
2018-03-23T09:29:17.482Z,9.52
2018-03-23T09:31:45.809Z,9.36
2018-03-23T09:34:14.199Z,9.53
2018-03-23T09:36:42.559Z,9.83
2018-03-23T09:39:10.882Z,10.20
2018-03-23T09:41:39.205Z,9.90
2018-03-23T09:44:08.327Z,9.87
2018-03-23T09:46:37.453Z,9.91
2018-03-23T09:49:06.294Z,10.02
2018-03-23T09:51:34.618Z,9.79
2018-03-23T09:54:02.913Z,9.19
2018-03-23T09:56:31.369Z,9.46
2018-03-23T09:58:59.726Z,9.41
2018-03-23T10:01:28.070Z,9.55
2018-03-23T10:03:56.443Z,9.58
2018-03-23T10:06:24.765Z,9.89
2018-03-23T10:08:53.091Z,10.15
2018-03-23T10:11:21.818Z,10.22
2018-03-23T10:13:50.138Z,10.42
2018-03-23T10:16:18.461Z,10.55
2018-03-23T10:18:47.569Z,10.01
2018-03-23T10:21:15.882Z,9.73
2018-03-23T10:23:44.207Z,9.63
2018-03-23T10:26:12.660Z,9.88
2018-03-23T10:28:41.053Z,10.21
2018-03-23T10:31:09.393Z,10.33
2018-03-23T10:33:37.936Z,10.64
2018-03-23T10:36:07.082Z,11.12
2018-03-23T10:38:35.457Z,10.14
2018-03-23T10:41:03.839Z,10.25
2018-03-23T10:43:32.261Z,10.54
2018-03-23T10:46:00.597Z,10.55
2018-03-23T10:48:28.969Z,11.28
2018-03-23T10:50:57.346Z,11.69
2018-03-23T10:53:25.675Z,11.74
2018-03-23T10:55:55.322Z,11.02
2018-03-23T10:58:23.625Z,10.95
2018-03-23T11:00:57.401Z,10.77
2018-03-23T11:03:25.766Z,10.66
2018-03-23T11:05:54.888Z,10.70
2018-03-23T11:08:24.150Z,11.48
2018-03-23T11:10:53.297Z,12.07
2018-03-23T11:13:21.675Z,11.84
2018-03-23T11:15:50.151Z,11.86
2018-03-23T11:18:18.486Z,12.31
2018-03-23T11:20:46.838Z,12.68
2018-03-23T11:23:15.267Z,13.65
2018-03-23T11:25:43.701Z,14.48
2018-03-23T11:28:12.065Z,15.38
2018-03-23T11:30:40.448Z,15.60
2018-03-23T11:33:08.795Z,15.68
2018-03-23T11:35:37.195Z,14.80
2018-03-23T11:38:05.630Z,14.33
2018-03-23T11:40:33.956Z,13.67
2018-03-23T11:43:02.309Z,12.74
2018-03-23T11:45:30.656Z,12.37
2018-03-23T11:47:59.002Z,12.59
2018-03-23T11:50:27.320Z,12.64
2018-03-23T11:52:56.429Z,12.52
2018-03-23T11:55:25.508Z,11.93
2018-03-23T11:57:54.628Z,11.82
2018-03-23T12:00:23.396Z,11.57
2018-03-23T12:02:51.718Z,11.82
2018-03-23T12:05:20.083Z,12.02
2018-03-23T12:07:48.441Z,11.71
2018-03-23T12:10:16.833Z,11.51
2018-03-23T12:12:45.175Z,11.89
2018-03-23T12:15:13.559Z,12.09
2018-03-23T12:17:42.665Z,12.29
2018-03-23T12:20:11.761Z,12.05
2018-03-23T12:22:41.378Z,12.05
2018-03-23T12:25:09.741Z,11.97
2018-03-23T12:27:38.100Z,11.92
2018-03-23T12:30:06.445Z,11.96
2018-03-23T12:32:34.884Z,11.95
2018-03-23T12:35:03.237Z,11.98
2018-03-23T12:37:31.865Z,11.35
2018-03-23T12:40:00.224Z,11.58
2018-03-23T12:42:28.559Z,12.26
2018-03-23T12:44:57.316Z,12.56
2018-03-23T12:47:25.655Z,12.46
2018-03-23T12:49:53.988Z,12.21
2018-03-23T12:52:22.404Z,12.28
2018-03-23T12:54:50.748Z,12.55
2018-03-23T12:57:19.073Z,12.77
2018-03-23T12:59:48.210Z,12.08
2018-03-23T13:02:16.540Z,12.29
2018-03-23T13:04:44.888Z,13.02
2018-03-23T13:07:13.637Z,13.00
2018-03-23T13:09:41.954Z,13.31
2018-03-23T13:12:10.302Z,13.31
2018-03-23T13:14:39.433Z,14.06
2018-03-23T13:17:07.832Z,16.37
2018-03-23T13:19:36.261Z,18.72
2018-03-23T13:22:04.643Z,21.28
2018-03-23T13:24:32.978Z,20.41
2018-03-23T13:27:01.337Z,21.78
2018-03-23T13:29:30.542Z,22.05
2018-03-23T13:31:58.914Z,22.19
2018-03-23T13:34:27.287Z,19.94
2018-03-23T13:36:55.709Z,18.34
2018-03-23T13:39:24.015Z,17.38
2018-03-23T13:41:52.432Z,16.56
2018-03-23T13:44:20.802Z,15.91
2018-03-23T13:46:49.144Z,15.98
2018-03-23T13:49:17.497Z,15.72
2018-03-23T13:51:46.255Z,14.31
2018-03-23T13:54:14.574Z,13.64
2018-03-23T13:56:42.950Z,13.92
2018-03-23T13:59:16.706Z,14.51
2018-03-23T14:01:45.099Z,14.23
2018-03-23T14:04:13.492Z,14.04
2018-03-23T14:06:41.891Z,13.45
2018-03-23T14:09:10.229Z,14.15
2018-03-23T14:11:38.640Z,14.94
2018-03-23T14:14:07.196Z,15.55
2018-03-23T14:16:35.575Z,15.70
2018-03-23T14:19:03.920Z,15.79
2018-03-23T14:21:33.069Z,14.92
2018-03-23T14:24:01.420Z,15.06
2018-03-23T14:26:29.751Z,15.12
2018-03-23T14:28:58.117Z,14.75
2018-03-23T14:31:26.440Z,14.68
2018-03-23T14:33:54.786Z,14.12
2018-03-23T14:36:23.308Z,13.13
2018-03-23T14:38:51.622Z,13.37
2018-03-23T14:41:19.981Z,12.89
2018-03-23T14:43:48.341Z,12.11
2018-03-23T14:46:16.754Z,12.32
2018-03-23T14:48:45.109Z,12.20
2018-03-23T14:51:13.466Z,11.88
2018-03-23T14:53:42.584Z,12.42
2018-03-23T14:56:10.906Z,12.16
2018-03-23T14:58:44.786Z,12.12
2018-03-23T15:01:13.086Z,12.27
2018-03-23T15:03:41.400Z,12.49
2018-03-23T15:06:10.531Z,12.42
2018-03-23T15:08:38.886Z,12.08
2018-03-23T15:11:08.105Z,12.22
2018-03-23T15:13:36.468Z,11.74
2018-03-23T15:16:04.807Z,11.90
2018-03-23T15:18:33.144Z,12.28
2018-03-23T15:21:01.898Z,12.42
2018-03-23T15:23:30.314Z,12.31
2018-03-23T15:25:58.635Z,12.11
2018-03-23T15:28:27.002Z,11.46
2018-03-23T15:30:55.349Z,11.69
2018-03-23T15:33:23.781Z,11.93
2018-03-23T15:35:52.921Z,11.74
2018-03-23T15:38:21.293Z,11.54
2018-03-23T15:40:49.603Z,11.78
2018-03-23T15:43:18.099Z,11.95
2018-03-23T15:45:46.447Z,12.11
2018-03-23T15:48:14.815Z,11.97
2018-03-23T15:50:43.149Z,11.27
2018-03-23T15:53:12.279Z,11.36
2018-03-23T15:55:40.600Z,11.54
2018-03-23T15:58:08.942Z,11.79
2018-03-23T16:00:37.255Z,11.84
2018-03-23T16:03:05.553Z,11.92
2018-03-23T16:05:33.972Z,11.67
2018-03-23T16:08:02.306Z,11.73
2018-03-23T16:10:30.640Z,11.56
2018-03-23T16:12:59.056Z,11.68
2018-03-23T16:15:27.440Z,11.65
2018-03-23T16:17:55.802Z,11.46
2018-03-23T16:20:24.137Z,11.40
2018-03-23T16:22:52.468Z,11.59
2018-03-23T16:25:20.820Z,11.55
2018-03-23T16:27:49.346Z,11.36
2018-03-23T16:30:17.660Z,11.33
2018-03-23T16:32:45.988Z,11.01
2018-03-23T16:35:14.331Z,11.27
2018-03-23T16:37:42.674Z,11.35
2018-03-23T16:40:11.819Z,11.38
2018-03-23T16:42:40.193Z,11.31
2018-03-23T16:45:08.552Z,11.22
2018-03-23T16:47:36.881Z,11.09
2018-03-23T16:50:05.505Z,11.40
2018-03-23T16:52:34.666Z,11.37
2018-03-23T16:55:02.981Z,11.34
2018-03-23T16:57:32.075Z,11.40
2018-03-23T17:00:00.456Z,11.15
2018-03-23T17:02:29.556Z,11.33
2018-03-23T17:04:58.704Z,11.53
2018-03-23T17:07:27.006Z,11.19
2018-03-23T17:09:55.370Z,10.99
2018-03-23T17:12:24.068Z,11.00
2018-03-23T17:14:52.444Z,10.98
2018-03-23T17:17:20.997Z,10.95
2018-03-23T17:19:49.353Z,10.88
2018-03-23T17:22:17.762Z,11.05
2018-03-23T17:24:46.168Z,11.27
2018-03-23T17:27:14.542Z,11.15
2018-03-23T17:29:42.894Z,11.08
2018-03-23T17:32:11.275Z,11.12
2018-03-23T17:34:39.744Z,10.72
2018-03-23T17:37:08.100Z,10.88
2018-03-23T17:39:36.438Z,10.92
2018-03-23T17:42:04.805Z,10.59
2018-03-23T17:44:33.233Z,10.72
2018-03-23T17:47:01.574Z,10.28
2018-03-23T17:49:30.577Z,10.51
2018-03-23T17:51:58.927Z,10.53
2018-03-23T17:54:27.250Z,10.69
2018-03-23T17:56:56.602Z,10.39
2018-03-23T17:59:24.945Z,10.18
2018-03-23T18:01:53.268Z,10.06
2018-03-23T18:04:21.637Z,9.87
2018-03-23T18:06:49.959Z,10.00
2018-03-23T18:09:18.294Z,10.32
2018-03-23T18:11:47.442Z,10.23
2018-03-23T18:14:15.767Z,10.31
2018-03-23T18:16:44.125Z,10.56
2018-03-23T18:19:13.220Z,10.74
2018-03-23T18:21:41.547Z,10.55
2018-03-23T18:24:09.992Z,10.30
2018-03-23T18:26:38.381Z,10.58
2018-03-23T18:29:06.765Z,10.72
2018-03-23T18:31:35.117Z,10.70
2018-03-23T18:34:03.465Z,10.64
2018-03-23T18:36:31.814Z,10.69
2018-03-23T18:39:00.209Z,10.90
2018-03-23T18:41:28.936Z,10.61
2018-03-23T18:43:57.246Z,10.54
2018-03-23T18:46:25.585Z,10.50
2018-03-23T18:48:54.716Z,10.47
2018-03-23T18:51:23.476Z,10.54
2018-03-23T18:53:51.811Z,10.58
2018-03-23T18:56:20.137Z,10.53
2018-03-23T18:58:48.509Z,10.40
2018-03-23T19:01:16.885Z,10.24
2018-03-23T19:03:45.358Z,10.05
2018-03-23T19:06:14.474Z,9.99
2018-03-23T19:08:42.789Z,9.56
2018-03-23T19:11:11.122Z,9.85
2018-03-23T19:13:40.214Z,9.81
2018-03-23T19:16:09.308Z,9.79
2018-03-23T19:18:37.653Z,9.40
2018-03-23T19:21:06.361Z,9.50
2018-03-23T19:23:34.699Z,9.33
2018-03-23T19:26:03.420Z,9.48
2018-03-23T19:28:31.797Z,9.26
2018-03-23T19:31:00.114Z,9.41
2018-03-23T19:33:28.484Z,9.41
2018-03-23T19:35:56.867Z,9.30
2018-03-23T19:38:25.231Z,9.24
2018-03-23T19:40:53.616Z,9.18
2018-03-23T19:43:22.726Z,9.24
2018-03-23T19:45:51.068Z,8.97
2018-03-23T19:48:19.808Z,8.83
2018-03-23T19:50:48.201Z,8.94
2018-03-23T19:53:16.549Z,9.07
2018-03-23T19:55:44.951Z,9.33
2018-03-23T19:58:13.304Z,9.42
2018-03-23T20:00:41.638Z,9.09
2018-03-23T20:03:09.981Z,8.73
2018-03-23T20:05:38.319Z,9.12
2018-03-23T20:08:07.426Z,8.86
2018-03-23T20:10:36.687Z,8.90
2018-03-23T20:13:05.001Z,9.11
2018-03-23T20:15:34.116Z,9.19
2018-03-23T20:18:07.873Z,8.92
2018-03-23T20:20:41.629Z,8.79
2018-03-23T20:23:09.997Z,8.80
2018-03-23T20:25:38.505Z,8.59
2018-03-23T20:28:12.801Z,8.79
2018-03-23T20:30:41.131Z,8.78
2018-03-23T20:33:09.503Z,8.49
2018-03-23T20:35:37.882Z,8.96
2018-03-23T20:38:06.235Z,9.06
2018-03-23T20:40:35.539Z,8.95
2018-03-23T20:43:03.943Z,8.90
2018-03-23T20:45:32.319Z,8.86
2018-03-23T20:48:00.700Z,8.96
2018-03-23T20:50:29.152Z,8.83
2018-03-23T20:52:57.491Z,8.80
2018-03-23T20:55:25.835Z,8.91
2018-03-23T20:57:54.237Z,8.88
2018-03-23T21:00:22.591Z,8.76
2018-03-23T21:02:50.947Z,8.88
2018-03-23T21:05:19.290Z,8.83
2018-03-23T21:07:47.616Z,9.03
2018-03-23T21:10:15.958Z,8.77
2018-03-23T21:12:45.149Z,8.75
2018-03-23T21:15:13.466Z,8.81
2018-03-23T21:17:41.781Z,8.75
2018-03-23T21:20:10.160Z,8.78
2018-03-23T21:22:38.479Z,8.76
2018-03-23T21:25:06.825Z,8.73
2018-03-23T21:27:35.995Z,8.83
2018-03-23T21:30:04.348Z,8.78
2018-03-23T21:32:32.677Z,8.60
2018-03-23T21:35:01.694Z,8.66
2018-03-23T21:37:30.044Z,8.53
2018-03-23T21:39:58.440Z,8.53
2018-03-23T21:42:26.807Z,8.43
2018-03-23T21:44:55.176Z,8.56
2018-03-23T21:47:23.508Z,8.66
2018-03-23T21:49:51.939Z,8.57
2018-03-23T21:52:20.249Z,8.62
2018-03-23T21:54:49.325Z,8.49
2018-03-23T21:57:17.999Z,8.66
2018-03-23T21:59:46.336Z,8.54
2018-03-23T22:02:14.730Z,8.41
2018-03-23T22:04:43.141Z,8.48
2018-03-23T22:07:11.453Z,8.63
2018-03-23T22:09:40.512Z,8.59
2018-03-23T22:12:08.870Z,8.63
2018-03-23T22:14:37.262Z,8.68
2018-03-23T22:17:05.649Z,8.57
2018-03-23T22:19:34.210Z,8.42
2018-03-23T22:22:02.538Z,8.33
2018-03-23T22:24:31.676Z,8.29
2018-03-23T22:27:00.015Z,8.37
2018-03-23T22:29:28.355Z,8.29
2018-03-23T22:31:56.763Z,8.18
2018-03-23T22:34:25.090Z,8.33
2018-03-23T22:36:53.394Z,8.19
2018-03-23T22:39:21.747Z,8.10
2018-03-23T22:41:50.147Z,8.23
2018-03-23T22:44:18.576Z,8.48
2018-03-23T22:46:46.931Z,8.35
2018-03-23T22:49:16.078Z,8.33
2018-03-23T22:51:44.418Z,8.15
2018-03-23T22:54:12.754Z,8.40
2018-03-23T22:56:41.100Z,8.34
2018-03-23T22:59:09.477Z,8.53
2018-03-23T23:01:37.775Z,8.37
2018-03-23T23:04:06.213Z,8.48
2018-03-23T23:06:34.526Z,8.30
2018-03-23T23:09:02.834Z,8.20
2018-03-23T23:11:31.501Z,8.37
2018-03-23T23:13:59.932Z,8.43
2018-03-23T23:16:28.306Z,8.51
2018-03-23T23:18:57.435Z,8.00
2018-03-23T23:21:25.807Z,7.95
2018-03-23T23:23:54.113Z,8.20
2018-03-23T23:26:22.804Z,8.13
2018-03-23T23:28:51.178Z,8.06
2018-03-23T23:31:19.552Z,7.94
2018-03-23T23:33:48.003Z,7.97
2018-03-23T23:36:16.380Z,8.20
2018-03-23T23:38:45.484Z,8.12
2018-03-23T23:41:13.843Z,7.92
2018-03-23T23:43:42.956Z,7.99
2018-03-23T23:46:11.296Z,8.02
2018-03-23T23:48:39.726Z,8.16
2018-03-23T23:51:08.130Z,8.26
2018-03-23T23:53:36.489Z,8.19
2018-03-23T23:56:04.852Z,8.09
2018-03-23T23:58:34.385Z,8.25
